sensor_id;sensor_type;location;lat;lon;timestamp;pressure;altitude;pressure_sealevel;temperature;humidity
34921;BME280;21128;50.016;20.002;2023-07-16T00:02:02;98648.24;;;23.38;62.19
34921;BME280;21128;50.016;20.002;2023-07-16T00:04:30;98644.84;;;23.30;63.06
34921;BME280;21128;50.016;20.002;2023-07-16T00:07:00;98645.59;;;23.19;63.35
34921;BME280;21128;50.016;20.002;2023-07-16T00:09:28;98636.13;;;23.05;64.67
34921;BME280;21128;50.016;20.002;2023-07-16T00:11:56;98646.20;;;22.91;64.81
34921;BME280;21128;50.016;20.002;2023-07-16T00:14:23;98640.97;;;22.78;66.13
34921;BME280;21128;50.016;20.002;2023-07-16T00:16:50;98636.60;;;22.65;66.45
34921;BME280;21128;50.016;20.002;2023-07-16T00:19:17;98639.00;;;22.55;66.98
34921;BME280;21128;50.016;20.002;2023-07-16T00:21:44;98640.34;;;22.46;67.46
34921;BME280;21128;50.016;20.002;2023-07-16T00:24:11;98632.61;;;22.38;68.26
34921;BME280;21128;50.016;20.002;2023-07-16T00:26:38;98638.09;;;22.25;68.65
34921;BME280;21128;50.016;20.002;2023-07-16T00:29:05;98636.75;;;22.15;69.09
34921;BME280;21128;50.016;20.002;2023-07-16T00:31:31;98642.80;;;22.04;70.64
34921;BME280;21128;50.016;20.002;2023-07-16T00:33:58;98643.09;;;21.96;71.18
34921;BME280;21128;50.016;20.002;2023-07-16T00:36:25;98640.69;;;21.88;71.85
34921;BME280;21128;50.016;20.002;2023-07-16T00:38:52;98641.11;;;21.85;72.75
34921;BME280;21128;50.016;20.002;2023-07-16T00:41:20;98626.33;;;21.82;73.15
34921;BME280;21128;50.016;20.002;2023-07-16T00:43:47;98634.17;;;21.77;74.18
34921;BME280;21128;50.016;20.002;2023-07-16T00:46:13;98624.60;;;21.70;74.07
34921;BME280;21128;50.016;20.002;2023-07-16T00:48:41;98629.18;;;21.62;75.33
34921;BME280;21128;50.016;20.002;2023-07-16T00:51:08;98622.02;;;21.56;76.01
34921;BME280;21128;50.016;20.002;2023-07-16T00:53:36;98625.19;;;21.47;76.49
34921;BME280;21128;50.016;20.002;2023-07-16T00:56:03;98622.73;;;21.45;77.50
34921;BME280;21128;50.016;20.002;2023-07-16T00:58:30;98613.27;;;21.43;77.90
34921;BME280;21128;50.016;20.002;2023-07-16T01:00:57;98613.50;;;21.41;78.01
34921;BME280;21128;50.016;20.002;2023-07-16T01:03:24;98614.98;;;21.37;78.71
34921;BME280;21128;50.016;20.002;2023-07-16T01:05:56;98604.93;;;21.32;78.98
34921;BME280;21128;50.016;20.002;2023-07-16T01:11:00;98607.61;;;21.26;80.46
34921;BME280;21128;50.016;20.002;2023-07-16T01:13:28;98606.20;;;21.23;80.36
34921;BME280;21128;50.016;20.002;2023-07-16T01:15:56;98614.66;;;21.20;80.48
34921;BME280;21128;50.016;20.002;2023-07-16T01:18:23;98608.91;;;21.17;80.76
34921;BME280;21128;50.016;20.002;2023-07-16T01:20:50;98599.48;;;21.14;81.00
34921;BME280;21128;50.016;20.002;2023-07-16T01:23:50;98599.11;;;21.11;81.65
34921;BME280;21128;50.016;20.002;2023-07-16T01:31:52;98605.14;;;20.93;81.76
34921;BME280;21128;50.016;20.002;2023-07-16T01:34:21;98598.23;;;20.85;82.29
34921;BME280;21128;50.016;20.002;2023-07-16T01:36:49;98600.11;;;20.78;82.52
34921;BME280;21128;50.016;20.002;2023-07-16T01:39:16;98586.35;;;20.74;83.30
34921;BME280;21128;50.016;20.002;2023-07-16T01:41:43;98592.13;;;20.71;83.54
34921;BME280;21128;50.016;20.002;2023-07-16T01:44:10;98592.38;;;20.63;83.83
34921;BME280;21128;50.016;20.002;2023-07-16T01:46:38;98596.10;;;20.56;84.81
34921;BME280;21128;50.016;20.002;2023-07-16T01:49:05;98595.72;;;20.52;84.79
34921;BME280;21128;50.016;20.002;2023-07-16T01:51:32;98586.70;;;20.46;85.08
34921;BME280;21128;50.016;20.002;2023-07-16T01:53:59;98581.58;;;20.45;85.87
34921;BME280;21128;50.016;20.002;2023-07-16T01:56:26;98580.76;;;20.44;86.92
34921;BME280;21128;50.016;20.002;2023-07-16T01:58:53;98578.24;;;20.43;86.52
34921;BME280;21128;50.016;20.002;2023-07-16T02:01:20;98580.75;;;20.38;86.51
34921;BME280;21128;50.016;20.002;2023-07-16T02:03:47;98578.08;;;20.38;87.25
34921;BME280;21128;50.016;20.002;2023-07-16T02:06:13;98576.23;;;20.38;87.74
34921;BME280;21128;50.016;20.002;2023-07-16T02:08:40;98572.14;;;20.36;87.33
34921;BME280;21128;50.016;20.002;2023-07-16T02:11:07;98584.67;;;20.35;87.62
34921;BME280;21128;50.016;20.002;2023-07-16T02:13:34;98581.18;;;20.35;87.95
34921;BME280;21128;50.016;20.002;2023-07-16T02:16:01;98571.11;;;20.37;88.25
34921;BME280;21128;50.016;20.002;2023-07-16T02:18:28;98584.45;;;20.37;88.06
34921;BME280;21128;50.016;20.002;2023-07-16T02:20:55;98582.39;;;20.32;88.78
34921;BME280;21128;50.016;20.002;2023-07-16T02:23:22;98577.89;;;20.26;88.45
34921;BME280;21128;50.016;20.002;2023-07-16T02:25:49;98588.56;;;20.26;88.70
34921;BME280;21128;50.016;20.002;2023-07-16T02:28:16;98586.75;;;20.27;89.07
34921;BME280;21128;50.016;20.002;2023-07-16T02:30:43;98590.42;;;20.25;89.36
34921;BME280;21128;50.016;20.002;2023-07-16T02:33:10;98589.00;;;20.23;89.11
34921;BME280;21128;50.016;20.002;2023-07-16T02:35:37;98591.06;;;20.21;89.38
34921;BME280;21128;50.016;20.002;2023-07-16T02:38:04;98592.09;;;20.20;89.08
34921;BME280;21128;50.016;20.002;2023-07-16T02:40:31;98584.31;;;20.18;89.68
34921;BME280;21128;50.016;20.002;2023-07-16T02:42:57;98586.77;;;20.20;89.52
34921;BME280;21128;50.016;20.002;2023-07-16T02:45:25;98588.83;;;20.18;89.87
34921;BME280;21128;50.016;20.002;2023-07-16T02:47:51;98586.34;;;20.16;90.09
34921;BME280;21128;50.016;20.002;2023-07-16T02:50:18;98593.14;;;20.12;90.30
34921;BME280;21128;50.016;20.002;2023-07-16T02:52:45;98585.14;;;20.12;89.80
34921;BME280;21128;50.016;20.002;2023-07-16T02:55:12;98583.08;;;20.14;90.45
34921;BME280;21128;50.016;20.002;2023-07-16T02:57:39;98588.61;;;20.19;90.63
34921;BME280;21128;50.016;20.002;2023-07-16T03:00:06;98586.77;;;20.20;90.25
34921;BME280;21128;50.016;20.002;2023-07-16T03:02:34;98590.46;;;20.19;90.23
34921;BME280;21128;50.016;20.002;2023-07-16T03:05:01;98589.42;;;20.20;89.91
34921;BME280;21128;50.016;20.002;2023-07-16T03:07:28;98577.13;;;20.19;89.80
34921;BME280;21128;50.016;20.002;2023-07-16T03:09:55;98582.64;;;20.17;90.25
34921;BME280;21128;50.016;20.002;2023-07-16T03:12:22;98582.86;;;20.16;90.02
34921;BME280;21128;50.016;20.002;2023-07-16T03:14:50;98584.31;;;20.18;90.69
34921;BME280;21128;50.016;20.002;2023-07-16T03:17:17;98595.37;;;20.22;90.84
34921;BME280;21128;50.016;20.002;2023-07-16T03:19:44;98592.27;;;20.25;90.81
34921;BME280;21128;50.016;20.002;2023-07-16T03:22:11;98595.56;;;20.27;90.83
34921;BME280;21128;50.016;20.002;2023-07-16T03:24:38;98601.30;;;20.31;90.89
34921;BME280;21128;50.016;20.002;2023-07-16T03:27:06;98600.67;;;20.35;90.48
34921;BME280;21128;50.016;20.002;2023-07-16T03:29:33;98605.58;;;20.38;90.69
34921;BME280;21128;50.016;20.002;2023-07-16T03:32:00;98607.86;;;20.35;90.42
34921;BME280;21128;50.016;20.002;2023-07-16T03:34:27;98608.25;;;20.38;90.92
34921;BME280;21128;50.016;20.002;2023-07-16T03:36:54;98596.33;;;20.41;89.82
34921;BME280;21128;50.016;20.002;2023-07-16T03:39:21;98597.80;;;20.43;90.49
34921;BME280;21128;50.016;20.002;2023-07-16T03:41:49;98601.89;;;20.46;90.09
34921;BME280;21128;50.016;20.002;2023-07-16T03:44:15;98599.01;;;20.47;90.09
34921;BME280;21128;50.016;20.002;2023-07-16T03:46:42;98600.42;;;20.50;89.50
34921;BME280;21128;50.016;20.002;2023-07-16T03:49:09;98598.39;;;20.52;89.78
34921;BME280;21128;50.016;20.002;2023-07-16T03:51:36;98600.84;;;20.54;89.54
34921;BME280;21128;50.016;20.002;2023-07-16T03:54:03;98603.07;;;20.57;89.13
34921;BME280;21128;50.016;20.002;2023-07-16T03:56:30;98600.38;;;20.63;89.53
34921;BME280;21128;50.016;20.002;2023-07-16T03:58:58;98598.91;;;20.67;89.66
34921;BME280;21128;50.016;20.002;2023-07-16T04:01:25;98607.71;;;20.74;90.08
34921;BME280;21128;50.016;20.002;2023-07-16T04:03:52;98603.81;;;20.77;89.26
34921;BME280;21128;50.016;20.002;2023-07-16T04:06:19;98611.58;;;20.85;88.87
34921;BME280;21128;50.016;20.002;2023-07-16T04:08:45;98604.98;;;20.88;88.97
34921;BME280;21128;50.016;20.002;2023-07-16T04:11:12;98601.66;;;20.92;88.63
34921;BME280;21128;50.016;20.002;2023-07-16T04:13:39;98608.22;;;20.96;88.90
34921;BME280;21128;50.016;20.002;2023-07-16T04:16:06;98601.63;;;20.99;88.20
34921;BME280;21128;50.016;20.002;2023-07-16T04:18:33;98601.37;;;21.07;88.21
34921;BME280;21128;50.016;20.002;2023-07-16T04:21:00;98607.05;;;21.17;88.67
34921;BME280;21128;50.016;20.002;2023-07-16T04:23:27;98603.08;;;21.26;88.23
34921;BME280;21128;50.016;20.002;2023-07-16T04:25:55;98606.97;;;21.37;88.15
34921;BME280;21128;50.016;20.002;2023-07-16T04:28:23;98610.78;;;21.48;87.63
34921;BME280;21128;50.016;20.002;2023-07-16T04:30:50;98615.86;;;21.56;86.80
34921;BME280;21128;50.016;20.002;2023-07-16T04:33:17;98606.53;;;21.65;86.70
34921;BME280;21128;50.016;20.002;2023-07-16T04:35:47;98626.23;;;21.71;85.74
34921;BME280;21128;50.016;20.002;2023-07-16T04:38:14;98616.08;;;21.79;86.03
34921;BME280;21128;50.016;20.002;2023-07-16T04:40:43;98615.34;;;21.90;86.35
34921;BME280;21128;50.016;20.002;2023-07-16T04:43:10;98615.42;;;22.02;86.10
34921;BME280;21128;50.016;20.002;2023-07-16T04:45:37;98627.67;;;22.16;85.65
34921;BME280;21128;50.016;20.002;2023-07-16T04:48:06;98628.14;;;22.32;85.51
34921;BME280;21128;50.016;20.002;2023-07-16T04:50:33;98635.58;;;22.48;85.17
34921;BME280;21128;50.016;20.002;2023-07-16T04:53:00;98644.70;;;22.59;84.25
34921;BME280;21128;50.016;20.002;2023-07-16T04:55:27;98643.05;;;22.76;83.17
34921;BME280;21128;50.016;20.002;2023-07-16T04:57:54;98642.34;;;22.87;82.62
34921;BME280;21128;50.016;20.002;2023-07-16T05:00:23;98646.23;;;23.03;82.18
34921;BME280;21128;50.016;20.002;2023-07-16T05:02:50;98647.23;;;23.20;81.63
34921;BME280;21128;50.016;20.002;2023-07-16T05:05:17;98648.24;;;23.38;80.78
34921;BME280;21128;50.016;20.002;2023-07-16T05:07:44;98648.84;;;23.51;80.29
34921;BME280;21128;50.016;20.002;2023-07-16T05:10:11;98655.20;;;23.69;79.74
34921;BME280;21128;50.016;20.002;2023-07-16T05:12:38;98656.96;;;23.86;79.34
34921;BME280;21128;50.016;20.002;2023-07-16T05:15:05;98658.14;;;24.02;78.68
34921;BME280;21128;50.016;20.002;2023-07-16T05:17:33;98661.42;;;24.16;78.32
34921;BME280;21128;50.016;20.002;2023-07-16T05:20:00;98667.34;;;24.30;77.37
34921;BME280;21128;50.016;20.002;2023-07-16T05:22:26;98663.40;;;24.44;76.82
34921;BME280;21128;50.016;20.002;2023-07-16T05:24:53;98667.48;;;24.58;76.43
34921;BME280;21128;50.016;20.002;2023-07-16T05:27:20;98662.19;;;24.63;75.84
34921;BME280;21128;50.016;20.002;2023-07-16T05:29:47;98668.53;;;24.57;74.77
34921;BME280;21128;50.016;20.002;2023-07-16T05:32:15;98667.48;;;24.47;74.97
34921;BME280;21128;50.016;20.002;2023-07-16T05:34:41;98674.84;;;24.51;75.15
34921;BME280;21128;50.016;20.002;2023-07-16T05:37:08;98670.16;;;24.58;74.84
34921;BME280;21128;50.016;20.002;2023-07-16T05:39:36;98663.12;;;24.69;74.74
34921;BME280;21128;50.016;20.002;2023-07-16T05:42:04;98664.63;;;24.77;74.49
34921;BME280;21128;50.016;20.002;2023-07-16T05:44:31;98664.00;;;24.86;74.59
34921;BME280;21128;50.016;20.002;2023-07-16T05:46:58;98667.48;;;24.98;73.81
34921;BME280;21128;50.016;20.002;2023-07-16T05:49:26;98669.44;;;25.15;73.87
34921;BME280;21128;50.016;20.002;2023-07-16T05:51:53;98670.52;;;25.31;73.44
34921;BME280;21128;50.016;20.002;2023-07-16T05:54:21;98675.92;;;25.47;72.70
34921;BME280;21128;50.016;20.002;2023-07-16T05:56:48;98680.45;;;25.59;72.24
34921;BME280;21128;50.016;20.002;2023-07-16T05:59:16;98672.88;;;25.72;72.37
34921;BME280;21128;50.016;20.002;2023-07-16T06:01:42;98686.84;;;25.86;72.08
34921;BME280;21128;50.016;20.002;2023-07-16T06:04:09;98674.05;;;25.93;70.83
34921;BME280;21128;50.016;20.002;2023-07-16T06:06:36;98674.13;;;25.98;70.75
34921;BME280;21128;50.016;20.002;2023-07-16T06:09:03;98681.35;;;26.15;70.76
34921;BME280;21128;50.016;20.002;2023-07-16T06:11:31;98678.08;;;26.29;70.28
34921;BME280;21128;50.016;20.002;2023-07-16T06:13:58;98672.38;;;26.43;69.66
34921;BME280;21128;50.016;20.002;2023-07-16T06:16:24;98673.40;;;26.58;69.43
34921;BME280;21128;50.016;20.002;2023-07-16T06:18:52;98681.65;;;26.74;68.82
34921;BME280;21128;50.016;20.002;2023-07-16T06:21:18;98680.73;;;26.85;68.22
34921;BME280;21128;50.016;20.002;2023-07-16T06:23:45;98680.92;;;27.00;68.17
34921;BME280;21128;50.016;20.002;2023-07-16T06:26:12;98677.84;;;27.13;67.62
34921;BME280;21128;50.016;20.002;2023-07-16T06:28:39;98680.70;;;27.29;67.64
34921;BME280;21128;50.016;20.002;2023-07-16T06:31:06;98682.20;;;27.41;66.72
34921;BME280;21128;50.016;20.002;2023-07-16T06:33:33;98679.03;;;27.49;66.55
34921;BME280;21128;50.016;20.002;2023-07-16T06:36:00;98676.69;;;27.58;66.45
34921;BME280;21128;50.016;20.002;2023-07-16T06:38:27;98679.76;;;27.67;66.43
34921;BME280;21128;50.016;20.002;2023-07-16T06:40:54;98689.02;;;27.76;65.69
34921;BME280;21128;50.016;20.002;2023-07-16T06:43:21;98681.27;;;27.90;65.61
34921;BME280;21128;50.016;20.002;2023-07-16T06:45:49;98691.67;;;28.08;65.34
34921;BME280;21128;50.016;20.002;2023-07-16T06:48:19;98687.45;;;28.22;64.50
34921;BME280;21128;50.016;20.002;2023-07-16T06:50:46;98692.14;;;28.32;63.76
34921;BME280;21128;50.016;20.002;2023-07-16T06:53:13;98690.33;;;28.43;63.12
34921;BME280;21128;50.016;20.002;2023-07-16T06:55:40;98701.19;;;28.53;62.00
34921;BME280;21128;50.016;20.002;2023-07-16T06:58:10;98699.88;;;28.60;60.45
34921;BME280;21128;50.016;20.002;2023-07-16T07:00:37;98696.37;;;28.60;58.92
34921;BME280;21128;50.016;20.002;2023-07-16T07:03:04;98703.66;;;28.59;57.90
34921;BME280;21128;50.016;20.002;2023-07-16T07:05:32;98702.90;;;28.69;57.33
34921;BME280;21128;50.016;20.002;2023-07-16T07:07:59;98702.67;;;28.76;57.04
34921;BME280;21128;50.016;20.002;2023-07-16T07:10:26;98698.92;;;28.87;57.00
34921;BME280;21128;50.016;20.002;2023-07-16T07:12:53;98697.63;;;29.00;56.43
34921;BME280;21128;50.016;20.002;2023-07-16T07:15:20;98702.25;;;29.04;55.69
34921;BME280;21128;50.016;20.002;2023-07-16T07:17:47;98701.20;;;29.15;55.21
34921;BME280;21128;50.016;20.002;2023-07-16T07:20:15;98702.60;;;29.28;55.07
34921;BME280;21128;50.016;20.002;2023-07-16T07:22:42;98703.70;;;29.37;55.35
34921;BME280;21128;50.016;20.002;2023-07-16T07:25:09;98713.44;;;29.38;55.11
34921;BME280;21128;50.016;20.002;2023-07-16T07:27:36;98716.11;;;29.23;55.10
34921;BME280;21128;50.016;20.002;2023-07-16T07:30:05;98722.59;;;29.22;55.47
34921;BME280;21128;50.016;20.002;2023-07-16T07:32:32;98716.11;;;29.23;55.41
34921;BME280;21128;50.016;20.002;2023-07-16T07:34:59;98717.75;;;29.29;55.37
34921;BME280;21128;50.016;20.002;2023-07-16T07:37:26;98722.05;;;29.25;54.32
34921;BME280;21128;50.016;20.002;2023-07-16T07:39:53;98722.33;;;29.19;53.69
34921;BME280;21128;50.016;20.002;2023-07-16T07:42:20;98728.25;;;29.15;53.67
34921;BME280;21128;50.016;20.002;2023-07-16T07:44:47;98727.98;;;29.12;53.07
34921;BME280;21128;50.016;20.002;2023-07-16T07:47:14;98735.80;;;29.08;52.36
34921;BME280;21128;50.016;20.002;2023-07-16T07:49:41;98750.98;;;29.09;52.58
34921;BME280;21128;50.016;20.002;2023-07-16T07:52:08;98744.48;;;29.15;50.81
34921;BME280;21128;50.016;20.002;2023-07-16T07:54:35;98755.61;;;29.19;50.69
34921;BME280;21128;50.016;20.002;2023-07-16T07:57:03;98762.64;;;29.25;50.20
34921;BME280;21128;50.016;20.002;2023-07-16T07:59:31;98765.92;;;29.27;49.28
34921;BME280;21128;50.016;20.002;2023-07-16T08:01:58;98769.17;;;29.29;48.69
34921;BME280;21128;50.016;20.002;2023-07-16T08:04:25;98772.45;;;29.36;48.78
34921;BME280;21128;50.016;20.002;2023-07-16T08:06:54;98769.77;;;29.47;49.13
34921;BME280;21128;50.016;20.002;2023-07-16T08:09:21;98775.77;;;29.59;49.42
34921;BME280;21128;50.016;20.002;2023-07-16T08:11:48;98787.16;;;29.66;48.56
34921;BME280;21128;50.016;20.002;2023-07-16T08:14:15;98778.78;;;29.73;47.82
34921;BME280;21128;50.016;20.002;2023-07-16T08:16:42;98785.84;;;29.79;47.93
34921;BME280;21128;50.016;20.002;2023-07-16T08:19:09;98778.27;;;29.86;47.82
34921;BME280;21128;50.016;20.002;2023-07-16T08:21:37;98771.20;;;29.85;46.93
34921;BME280;21128;50.016;20.002;2023-07-16T08:24:05;98774.19;;;29.83;47.20
34921;BME280;21128;50.016;20.002;2023-07-16T08:26:33;98793.70;;;29.90;47.23
34921;BME280;21128;50.016;20.002;2023-07-16T08:29:00;98783.95;;;29.89;47.54
34921;BME280;21128;50.016;20.002;2023-07-16T08:31:28;98780.45;;;29.94;46.93
34921;BME280;21128;50.016;20.002;2023-07-16T08:33:55;98779.07;;;29.91;46.95
34921;BME280;21128;50.016;20.002;2023-07-16T08:36:22;98782.87;;;30.00;47.62
34921;BME280;21128;50.016;20.002;2023-07-16T08:38:49;98788.03;;;30.07;47.04
34921;BME280;21128;50.016;20.002;2023-07-16T08:41:16;98784.83;;;30.10;47.09
34921;BME280;21128;50.016;20.002;2023-07-16T08:43:47;98795.38;;;30.17;46.92
34921;BME280;21128;50.016;20.002;2023-07-16T08:46:17;98795.94;;;30.19;46.54
34921;BME280;21128;50.016;20.002;2023-07-16T08:48:45;98793.50;;;30.28;45.67
34921;BME280;21128;50.016;20.002;2023-07-16T08:51:15;98794.56;;;30.32;45.13
34921;BME280;21128;50.016;20.002;2023-07-16T08:53:43;98787.78;;;30.34;44.55
34921;BME280;21128;50.016;20.002;2023-07-16T08:56:10;98788.33;;;30.46;44.55
34921;BME280;21128;50.016;20.002;2023-07-16T08:58:37;98788.31;;;30.62;45.03
34921;BME280;21128;50.016;20.002;2023-07-16T09:01:05;98774.75;;;30.72;44.90
34921;BME280;21128;50.016;20.002;2023-07-16T09:03:33;98780.92;;;30.93;44.34
34921;BME280;21128;50.016;20.002;2023-07-16T09:05:59;98788.20;;;31.13;43.89
34921;BME280;21128;50.016;20.002;2023-07-16T09:08:27;98780.02;;;31.18;42.81
34921;BME280;21128;50.016;20.002;2023-07-16T09:10:56;98784.91;;;31.21;43.21
34921;BME280;21128;50.016;20.002;2023-07-16T09:13:24;98774.27;;;31.34;43.23
34921;BME280;21128;50.016;20.002;2023-07-16T09:15:56;98780.72;;;31.49;42.55
34921;BME280;21128;50.016;20.002;2023-07-16T09:18:25;98787.12;;;31.68;42.94
34921;BME280;21128;50.016;20.002;2023-07-16T09:20:59;98790.64;;;31.69;41.84
34921;BME280;21128;50.016;20.002;2023-07-16T09:23:30;98784.09;;;31.75;42.05
34921;BME280;21128;50.016;20.002;2023-07-16T09:25:58;98784.03;;;31.90;41.73
34921;BME280;21128;50.016;20.002;2023-07-16T09:28:25;98782.84;;;32.01;42.12
34921;BME280;21128;50.016;20.002;2023-07-16T09:30:53;98789.76;;;32.23;41.70
34921;BME280;21128;50.016;20.002;2023-07-16T09:33:21;98788.34;;;32.30;41.51
34921;BME280;21128;50.016;20.002;2023-07-16T09:35:49;98785.88;;;32.34;40.95
34921;BME280;21128;50.016;20.002;2023-07-16T09:38:18;98790.22;;;32.35;41.17
34921;BME280;21128;50.016;20.002;2023-07-16T09:40:45;98785.55;;;32.40;41.01
34921;BME280;21128;50.016;20.002;2023-07-16T09:43:12;98793.80;;;32.59;40.75
34921;BME280;21128;50.016;20.002;2023-07-16T09:45:41;98784.42;;;32.70;39.94
34921;BME280;21128;50.016;20.002;2023-07-16T09:48:09;98775.23;;;32.66;39.80
34921;BME280;21128;50.016;20.002;2023-07-16T09:50:37;98778.72;;;32.72;39.85
34921;BME280;21128;50.016;20.002;2023-07-16T09:53:05;98789.82;;;32.75;39.10
34921;BME280;21128;50.016;20.002;2023-07-16T09:55:35;98774.78;;;32.83;39.87
34921;BME280;21128;50.016;20.002;2023-07-16T09:58:07;98775.83;;;33.11;39.69
34921;BME280;21128;50.016;20.002;2023-07-16T10:00:36;98777.86;;;33.24;39.59
34921;BME280;21128;50.016;20.002;2023-07-16T10:03:07;98778.72;;;33.44;39.82
34921;BME280;21128;50.016;20.002;2023-07-16T10:05:36;98781.68;;;33.66;39.10
34921;BME280;21128;50.016;20.002;2023-07-16T10:08:04;98780.34;;;33.82;39.13
34921;BME280;21128;50.016;20.002;2023-07-16T10:10:48;98777.19;;;33.94;37.24
34921;BME280;21128;50.016;20.002;2023-07-16T10:13:16;98785.86;;;33.77;37.52
34921;BME280;21128;50.016;20.002;2023-07-16T10:18:38;98776.58;;;33.78;37.50
34921;BME280;21128;50.016;20.002;2023-07-16T10:21:07;98777.70;;;33.96;37.84
34921;BME280;21128;50.016;20.002;2023-07-16T10:23:42;98769.20;;;34.17;37.39
34921;BME280;21128;50.016;20.002;2023-07-16T10:26:12;98767.61;;;34.29;36.57
34921;BME280;21128;50.016;20.002;2023-07-16T10:28:40;98765.84;;;34.06;36.07
34921;BME280;21128;50.016;20.002;2023-07-16T10:31:17;98769.92;;;33.90;36.19
34921;BME280;21128;50.016;20.002;2023-07-16T10:33:57;98762.15;;;33.97;36.53
34921;BME280;21128;50.016;20.002;2023-07-16T10:36:24;98768.57;;;34.06;36.06
34921;BME280;21128;50.016;20.002;2023-07-16T10:38:51;98763.63;;;34.08;36.33
34921;BME280;21128;50.016;20.002;2023-07-16T10:41:18;98763.27;;;34.28;36.41
34921;BME280;21128;50.016;20.002;2023-07-16T10:43:45;98770.26;;;34.34;35.64
34921;BME280;21128;50.016;20.002;2023-07-16T10:46:13;98761.04;;;34.30;35.68
34921;BME280;21128;50.016;20.002;2023-07-16T10:48:46;98764.30;;;34.32;34.91
34921;BME280;21128;50.016;20.002;2023-07-16T10:51:15;98762.34;;;34.52;35.00
34921;BME280;21128;50.016;20.002;2023-07-16T10:53:43;98768.33;;;34.67;33.59
34921;BME280;21128;50.016;20.002;2023-07-16T10:56:10;98759.83;;;34.69;33.51
34921;BME280;21128;50.016;20.002;2023-07-16T10:58:37;98766.51;;;34.77;33.92
34921;BME280;21128;50.016;20.002;2023-07-16T11:01:04;98757.25;;;34.91;34.19
34921;BME280;21128;50.016;20.002;2023-07-16T11:03:31;98761.88;;;35.05;33.58
34921;BME280;21128;50.016;20.002;2023-07-16T11:06:05;98745.39;;;34.82;32.50
34921;BME280;21128;50.016;20.002;2023-07-16T11:08:33;98754.45;;;34.64;33.18
34921;BME280;21128;50.016;20.002;2023-07-16T11:11:00;98761.95;;;34.72;33.48
34921;BME280;21128;50.016;20.002;2023-07-16T11:13:28;98763.58;;;34.87;33.35
34921;BME280;21128;50.016;20.002;2023-07-16T11:15:55;98754.89;;;34.85;32.79
34921;BME280;21128;50.016;20.002;2023-07-16T11:18:23;98745.52;;;34.91;32.76
34921;BME280;21128;50.016;20.002;2023-07-16T11:20:52;98752.29;;;35.07;33.05
34921;BME280;21128;50.016;20.002;2023-07-16T11:23:19;98748.00;;;35.29;33.15
34921;BME280;21128;50.016;20.002;2023-07-16T11:25:47;98747.84;;;35.61;32.95
34921;BME280;21128;50.016;20.002;2023-07-16T11:28:15;98756.08;;;35.84;32.78
34921;BME280;21128;50.016;20.002;2023-07-16T11:30:42;98748.68;;;35.84;32.42
34921;BME280;21128;50.016;20.002;2023-07-16T11:33:10;98748.45;;;35.94;31.85
34921;BME280;21128;50.016;20.002;2023-07-16T11:35:38;98747.06;;;35.83;32.47
34921;BME280;21128;50.016;20.002;2023-07-16T11:38:06;98749.17;;;35.86;31.87
34921;BME280;21128;50.016;20.002;2023-07-16T11:40:34;98751.08;;;35.99;31.18
34921;BME280;21128;50.016;20.002;2023-07-16T11:43:11;98749.09;;;35.91;29.17
34921;BME280;21128;50.016;20.002;2023-07-16T11:45:38;98745.09;;;35.97;30.36
34921;BME280;21128;50.016;20.002;2023-07-16T11:48:05;98746.20;;;36.19;30.13
34921;BME280;21128;50.016;20.002;2023-07-16T11:50:33;98738.53;;;36.52;30.15
34921;BME280;21128;50.016;20.002;2023-07-16T11:53:01;98739.53;;;36.64;29.98
34921;BME280;21128;50.016;20.002;2023-07-16T11:55:30;98745.78;;;36.56;30.15
34921;BME280;21128;50.016;20.002;2023-07-16T11:57:57;98753.38;;;36.59;29.97
34921;BME280;21128;50.016;20.002;2023-07-16T12:00:26;98746.68;;;36.83;29.90
34921;BME280;21128;50.016;20.002;2023-07-16T12:02:53;98734.42;;;37.20;29.60
34921;BME280;21128;50.016;20.002;2023-07-16T12:05:22;98734.47;;;37.37;29.43
34921;BME280;21128;50.016;20.002;2023-07-16T12:07:51;98741.89;;;37.63;29.24
34921;BME280;21128;50.016;20.002;2023-07-16T12:10:18;98728.19;;;37.71;29.47
34921;BME280;21128;50.016;20.002;2023-07-16T12:12:45;98740.11;;;37.67;29.48
34921;BME280;21128;50.016;20.002;2023-07-16T12:15:11;98734.63;;;37.41;29.58
34921;BME280;21128;50.016;20.002;2023-07-16T12:17:39;98735.53;;;37.10;29.79
34921;BME280;21128;50.016;20.002;2023-07-16T12:20:06;98731.46;;;36.99;29.80
34921;BME280;21128;50.016;20.002;2023-07-16T12:22:33;98728.78;;;36.68;29.45
34921;BME280;21128;50.016;20.002;2023-07-16T12:25:00;98719.82;;;36.45;29.76
34921;BME280;21128;50.016;20.002;2023-07-16T12:27:27;98737.29;;;36.35;30.40
34921;BME280;21128;50.016;20.002;2023-07-16T12:29:55;98727.86;;;36.42;30.59
34921;BME280;21128;50.016;20.002;2023-07-16T12:32:22;98729.09;;;36.67;30.44
34921;BME280;21128;50.016;20.002;2023-07-16T12:34:49;98724.03;;;36.91;30.42
34921;BME280;21128;50.016;20.002;2023-07-16T12:37:16;98724.54;;;36.93;29.95
34921;BME280;21128;50.016;20.002;2023-07-16T12:39:43;98731.60;;;36.85;30.02
34921;BME280;21128;50.016;20.002;2023-07-16T12:42:10;98724.19;;;36.86;29.87
34921;BME280;21128;50.016;20.002;2023-07-16T12:44:37;98719.70;;;36.99;29.98
34921;BME280;21128;50.016;20.002;2023-07-16T12:47:04;98728.22;;;36.88;29.86
34921;BME280;21128;50.016;20.002;2023-07-16T12:49:31;98719.52;;;36.86;29.44
34921;BME280;21128;50.016;20.002;2023-07-16T12:51:59;98718.63;;;36.69;29.58
34921;BME280;21128;50.016;20.002;2023-07-16T12:54:25;98730.84;;;36.62;29.88
34921;BME280;21128;50.016;20.002;2023-07-16T12:56:52;98721.20;;;36.74;30.20
34921;BME280;21128;50.016;20.002;2023-07-16T12:59:19;98719.52;;;36.86;29.89
34921;BME280;21128;50.016;20.002;2023-07-16T13:01:46;98709.19;;;36.83;29.32
34921;BME280;21128;50.016;20.002;2023-07-16T13:04:13;98701.97;;;36.87;29.58